sensor_id;sensor_type;location;lat;lon;timestamp;P1;durP1;ratioP1;P2;durP2;ratioP2
18046;SDS011;9148;51.454;13.862;2022-09-24T00:01:19;3.70;;;3.37;;
18046;SDS011;9148;51.454;13.862;2022-09-24T00:03:51;2.80;;;2.43;;
18046;SDS011;9148;51.454;13.862;2022-09-24T00:06:20;2.87;;;2.63;;
18046;SDS011;9148;51.454;13.862;2022-09-24T00:08:48;3.03;;;2.77;;
18046;SDS011;9148;51.454;13.862;2022-09-24T00:11:15;3.23;;;2.53;;
18046;SDS011;9148;51.454;13.862;2022-09-24T00:13:44;2.97;;;2.67;;
18046;SDS011;9148;51.454;13.862;2022-09-24T00:16:11;3.00;;;2.80;;
18046;SDS011;9148;51.454;13.862;2022-09-24T00:18:39;5.60;;;2.70;;
18046;SDS011;9148;51.454;13.862;2022-09-24T00:21:16;3.30;;;2.50;;
18046;SDS011;9148;51.454;13.862;2022-09-24T00:23:50;2.77;;;2.43;;
18046;SDS011;9148;51.454;13.862;2022-09-24T00:26:19;3.30;;;2.77;;
18046;SDS011;9148;51.454;13.862;2022-09-24T00:29:04;4.00;;;2.70;;
18046;SDS011;9148;51.454;13.862;2022-09-24T00:31:31;2.33;;;2.13;;
18046;SDS011;9148;51.454;13.862;2022-09-24T00:33:57;4.50;;;3.10;;
18046;SDS011;9148;51.454;13.862;2022-09-24T00:36:23;3.90;;;2.80;;
18046;SDS011;9148;51.454;13.862;2022-09-24T00:38:50;5.77;;;2.83;;
18046;SDS011;9148;51.454;13.862;2022-09-24T00:41:18;2.03;;;1.83;;
18046;SDS011;9148;51.454;13.862;2022-09-24T00:43:46;2.00;;;1.83;;
18046;SDS011;9148;51.454;13.862;2022-09-24T00:49:18;2.60;;;2.40;;
18046;SDS011;9148;51.454;13.862;2022-09-24T00:51:47;2.63;;;2.33;;
18046;SDS011;9148;51.454;13.862;2022-09-24T00:54:16;2.50;;;1.97;;
18046;SDS011;9148;51.454;13.862;2022-09-24T00:56:47;4.90;;;3.03;;
18046;SDS011;9148;51.454;13.862;2022-09-24T00:59:14;2.00;;;1.90;;
18046;SDS011;9148;51.454;13.862;2022-09-24T01:01:44;2.47;;;2.20;;
18046;SDS011;9148;51.454;13.862;2022-09-24T01:04:11;2.10;;;1.73;;
18046;SDS011;9148;51.454;13.862;2022-09-24T01:06:39;2.50;;;2.10;;
18046;SDS011;9148;51.454;13.862;2022-09-24T01:09:04;2.90;;;2.40;;
18046;SDS011;9148;51.454;13.862;2022-09-24T01:14:51;2.30;;;2.10;;
18046;SDS011;9148;51.454;13.862;2022-09-24T01:17:41;2.03;;;1.83;;
18046;SDS011;9148;51.454;13.862;2022-09-24T01:23:06;4.47;;;2.23;;
18046;SDS011;9148;51.454;13.862;2022-09-24T01:31:48;3.27;;;2.30;;
18046;SDS011;9148;51.454;13.862;2022-09-24T01:34:24;2.73;;;2.53;;
18046;SDS011;9148;51.454;13.862;2022-09-24T01:36:54;2.77;;;2.57;;
18046;SDS011;9148;51.454;13.862;2022-09-24T01:39:22;1.77;;;1.67;;
18046;SDS011;9148;51.454;13.862;2022-09-24T01:41:50;2.33;;;2.20;;
18046;SDS011;9148;51.454;13.862;2022-09-24T01:44:17;5.37;;;2.87;;
18046;SDS011;9148;51.454;13.862;2022-09-24T01:46:43;2.47;;;2.27;;
18046;SDS011;9148;51.454;13.862;2022-09-24T01:49:09;2.93;;;2.23;;
18046;SDS011;9148;51.454;13.862;2022-09-24T01:51:42;3.87;;;2.03;;
18046;SDS011;9148;51.454;13.862;2022-09-24T01:54:15;3.10;;;2.40;;
18046;SDS011;9148;51.454;13.862;2022-09-24T01:56:49;2.93;;;2.50;;
18046;SDS011;9148;51.454;13.862;2022-09-24T01:59:24;2.63;;;2.40;;
18046;SDS011;9148;51.454;13.862;2022-09-24T02:02:14;2.50;;;2.30;;
18046;SDS011;9148;51.454;13.862;2022-09-24T02:04:55;2.33;;;2.03;;
18046;SDS011;9148;51.454;13.862;2022-09-24T02:08:11;2.90;;;2.30;;
18046;SDS011;9148;51.454;13.862;2022-09-24T02:10:38;2.40;;;2.20;;
18046;SDS011;9148;51.454;13.862;2022-09-24T02:13:24;3.03;;;2.30;;
18046;SDS011;9148;51.454;13.862;2022-09-24T02:15:57;2.87;;;2.57;;
18046;SDS011;9148;51.454;13.862;2022-09-24T02:18:27;3.43;;;2.27;;
18046;SDS011;9148;51.454;13.862;2022-09-24T02:20:59;3.00;;;2.70;;
18046;SDS011;9148;51.454;13.862;2022-09-24T02:23:34;2.30;;;2.10;;
18046;SDS011;9148;51.454;13.862;2022-09-24T02:26:02;2.90;;;2.63;;
18046;SDS011;9148;51.454;13.862;2022-09-24T02:28:30;3.17;;;1.90;;
18046;SDS011;9148;51.454;13.862;2022-09-24T02:31:00;3.30;;;2.67;;
18046;SDS011;9148;51.454;13.862;2022-09-24T02:33:31;3.30;;;2.37;;
18046;SDS011;9148;51.454;13.862;2022-09-24T02:36:18;2.57;;;2.37;;
18046;SDS011;9148;51.454;13.862;2022-09-24T02:38:44;6.30;;;2.07;;
18046;SDS011;9148;51.454;13.862;2022-09-24T02:41:10;2.80;;;2.40;;
18046;SDS011;9148;51.454;13.862;2022-09-24T02:43:37;3.10;;;2.80;;
18046;SDS011;9148;51.454;13.862;2022-09-24T02:46:05;2.87;;;2.47;;
18046;SDS011;9148;51.454;13.862;2022-09-24T02:48:33;5.37;;;2.87;;
18046;SDS011;9148;51.454;13.862;2022-09-24T02:51:03;2.77;;;2.57;;
18046;SDS011;9148;51.454;13.862;2022-09-24T02:53:30;2.43;;;2.10;;
18046;SDS011;9148;51.454;13.862;2022-09-24T02:55:56;2.93;;;2.10;;
18046;SDS011;9148;51.454;13.862;2022-09-24T02:58:24;2.87;;;2.23;;
18046;SDS011;9148;51.454;13.862;2022-09-24T03:00:51;2.67;;;2.23;;
18046;SDS011;9148;51.454;13.862;2022-09-24T03:03:18;3.90;;;2.40;;
18046;SDS011;9148;51.454;13.862;2022-09-24T03:05:46;3.47;;;2.70;;
18046;SDS011;9148;51.454;13.862;2022-09-24T03:08:13;3.47;;;2.73;;
18046;SDS011;9148;51.454;13.862;2022-09-24T03:10:39;4.77;;;2.70;;
18046;SDS011;9148;51.454;13.862;2022-09-24T03:13:04;3.47;;;3.17;;
18046;SDS011;9148;51.454;13.862;2022-09-24T03:15:30;2.73;;;2.53;;
18046;SDS011;9148;51.454;13.862;2022-09-24T03:17:56;4.10;;;2.67;;
18046;SDS011;9148;51.454;13.862;2022-09-24T03:20:22;2.73;;;2.33;;
18046;SDS011;9148;51.454;13.862;2022-09-24T03:22:51;3.17;;;2.77;;
18046;SDS011;9148;51.454;13.862;2022-09-24T03:25:17;2.80;;;2.13;;
18046;SDS011;9148;51.454;13.862;2022-09-24T03:27:44;3.10;;;2.83;;
18046;SDS011;9148;51.454;13.862;2022-09-24T03:30:10;5.00;;;2.90;;
18046;SDS011;9148;51.454;13.862;2022-09-24T03:32:55;3.37;;;2.43;;
18046;SDS011;9148;51.454;13.862;2022-09-24T03:35:21;4.23;;;2.50;;
18046;SDS011;9148;51.454;13.862;2022-09-24T03:37:46;1.77;;;1.67;;
18046;SDS011;9148;51.454;13.862;2022-09-24T03:40:12;2.30;;;2.07;;
18046;SDS011;9148;51.454;13.862;2022-09-24T03:42:38;2.80;;;2.13;;
18046;SDS011;9148;51.454;13.862;2022-09-24T03:45:04;12.33;;;2.27;;
18046;SDS011;9148;51.454;13.862;2022-09-24T03:47:30;3.03;;;2.40;;
18046;SDS011;9148;51.454;13.862;2022-09-24T03:49:56;2.67;;;2.47;;
18046;SDS011;9148;51.454;13.862;2022-09-24T03:52:23;3.27;;;2.60;;
18046;SDS011;9148;51.454;13.862;2022-09-24T03:54:49;2.50;;;2.30;;
18046;SDS011;9148;51.454;13.862;2022-09-24T03:57:15;2.67;;;2.47;;
18046;SDS011;9148;51.454;13.862;2022-09-24T03:59:42;2.83;;;2.63;;
18046;SDS011;9148;51.454;13.862;2022-09-24T04:02:08;2.30;;;2.10;;
18046;SDS011;9148;51.454;13.862;2022-09-24T04:04:35;2.17;;;1.97;;
18046;SDS011;9148;51.454;13.862;2022-09-24T04:07:02;2.73;;;2.53;;
18046;SDS011;9148;51.454;13.862;2022-09-24T04:09:28;4.27;;;3.30;;
18046;SDS011;9148;51.454;13.862;2022-09-24T04:11:54;2.43;;;2.13;;
18046;SDS011;9148;51.454;13.862;2022-09-24T04:14:20;6.17;;;3.33;;
18046;SDS011;9148;51.454;13.862;2022-09-24T04:16:45;3.27;;;2.67;;
18046;SDS011;9148;51.454;13.862;2022-09-24T04:19:12;3.13;;;2.87;;
18046;SDS011;9148;51.454;13.862;2022-09-24T04:21:40;4.00;;;2.50;;
18046;SDS011;9148;51.454;13.862;2022-09-24T04:24:12;4.27;;;2.63;;
18046;SDS011;9148;51.454;13.862;2022-09-24T04:26:37;2.17;;;1.97;;
18046;SDS011;9148;51.454;13.862;2022-09-24T04:29:03;3.10;;;2.37;;
18046;SDS011;9148;51.454;13.862;2022-09-24T04:31:30;3.50;;;2.70;;
18046;SDS011;9148;51.454;13.862;2022-09-24T04:33:57;3.13;;;2.10;;
18046;SDS011;9148;51.454;13.862;2022-09-24T04:36:23;3.27;;;2.53;;
18046;SDS011;9148;51.454;13.862;2022-09-24T04:38:49;3.20;;;2.90;;
18046;SDS011;9148;51.454;13.862;2022-09-24T04:41:15;2.33;;;2.13;;
18046;SDS011;9148;51.454;13.862;2022-09-24T04:43:41;3.50;;;2.43;;
18046;SDS011;9148;51.454;13.862;2022-09-24T04:46:07;2.87;;;2.43;;
18046;SDS011;9148;51.454;13.862;2022-09-24T04:48:34;3.17;;;2.53;;
18046;SDS011;9148;51.454;13.862;2022-09-24T04:51:02;3.33;;;2.70;;
18046;SDS011;9148;51.454;13.862;2022-09-24T04:53:29;3.53;;;2.73;;
18046;SDS011;9148;51.454;13.862;2022-09-24T04:55:56;2.23;;;2.03;;
18046;SDS011;9148;51.454;13.862;2022-09-24T04:58:25;2.80;;;2.47;;
18046;SDS011;9148;51.454;13.862;2022-09-24T05:00:51;6.30;;;2.43;;
18046;SDS011;9148;51.454;13.862;2022-09-24T05:03:17;5.10;;;3.57;;
18046;SDS011;9148;51.454;13.862;2022-09-24T05:05:45;9.53;;;2.83;;
18046;SDS011;9148;51.454;13.862;2022-09-24T05:08:11;2.50;;;2.30;;
18046;SDS011;9148;51.454;13.862;2022-09-24T05:10:37;3.37;;;2.77;;
18046;SDS011;9148;51.454;13.862;2022-09-24T05:13:03;2.17;;;1.97;;
18046;SDS011;9148;51.454;13.862;2022-09-24T05:15:29;2.53;;;2.33;;
18046;SDS011;9148;51.454;13.862;2022-09-24T05:17:55;3.60;;;2.63;;
18046;SDS011;9148;51.454;13.862;2022-09-24T05:20:21;5.50;;;3.10;;
18046;SDS011;9148;51.454;13.862;2022-09-24T05:22:47;4.20;;;2.67;;
18046;SDS011;9148;51.454;13.862;2022-09-24T05:25:14;4.13;;;3.20;;
18046;SDS011;9148;51.454;13.862;2022-09-24T05:27:42;2.63;;;2.20;;
18046;SDS011;9148;51.454;13.862;2022-09-24T05:30:13;3.07;;;2.17;;
18046;SDS011;9148;51.454;13.862;2022-09-24T05:32:40;3.53;;;2.87;;
18046;SDS011;9148;51.454;13.862;2022-09-24T05:35:07;2.77;;;2.20;;
18046;SDS011;9148;51.454;13.862;2022-09-24T05:37:34;3.63;;;2.20;;
18046;SDS011;9148;51.454;13.862;2022-09-24T05:40:02;6.00;;;3.87;;
18046;SDS011;9148;51.454;13.862;2022-09-24T05:42:48;4.97;;;3.83;;
18046;SDS011;9148;51.454;13.862;2022-09-24T05:45:14;6.27;;;4.23;;
18046;SDS011;9148;51.454;13.862;2022-09-24T05:47:42;2.80;;;2.43;;
18046;SDS011;9148;51.454;13.862;2022-09-24T05:50:13;4.23;;;2.57;;
18046;SDS011;9148;51.454;13.862;2022-09-24T05:52:39;3.90;;;3.50;;
18046;SDS011;9148;51.454;13.862;2022-09-24T05:55:06;4.33;;;3.90;;
18046;SDS011;9148;51.454;13.862;2022-09-24T05:57:34;4.60;;;3.70;;
18046;SDS011;9148;51.454;13.862;2022-09-24T06:00:00;4.80;;;4.40;;
18046;SDS011;9148;51.454;13.862;2022-09-24T06:02:26;5.17;;;4.13;;
18046;SDS011;9148;51.454;13.862;2022-09-24T06:04:51;7.33;;;6.03;;
18046;SDS011;9148;51.454;13.862;2022-09-24T06:07:17;7.13;;;6.40;;
18046;SDS011;9148;51.454;13.862;2022-09-24T06:09:45;15.17;;;7.87;;
18046;SDS011;9148;51.454;13.862;2022-09-24T06:12:11;12.53;;;9.10;;
18046;SDS011;9148;51.454;13.862;2022-09-24T06:14:38;12.60;;;8.17;;
18046;SDS011;9148;51.454;13.862;2022-09-24T06:17:06;11.00;;;7.93;;
18046;SDS011;9148;51.454;13.862;2022-09-24T06:19:32;12.30;;;9.40;;
18046;SDS011;9148;51.454;13.862;2022-09-24T06:21:58;17.70;;;11.10;;
18046;SDS011;9148;51.454;13.862;2022-09-24T06:24:24;16.40;;;10.33;;
18046;SDS011;9148;51.454;13.862;2022-09-24T06:26:50;12.73;;;6.93;;
18046;SDS011;9148;51.454;13.862;2022-09-24T06:29:16;11.80;;;7.50;;
18046;SDS011;9148;51.454;13.862;2022-09-24T06:31:42;5.23;;;4.50;;
18046;SDS011;9148;51.454;13.862;2022-09-24T06:34:08;5.20;;;3.53;;
18046;SDS011;9148;51.454;13.862;2022-09-24T06:36:34;5.10;;;4.57;;
18046;SDS011;9148;51.454;13.862;2022-09-24T06:39:00;7.27;;;5.07;;
18046;SDS011;9148;51.454;13.862;2022-09-24T06:41:26;8.47;;;4.57;;
18046;SDS011;9148;51.454;13.862;2022-09-24T06:43:54;4.83;;;3.13;;
18046;SDS011;9148;51.454;13.862;2022-09-24T06:46:20;7.73;;;3.33;;
18046;SDS011;9148;51.454;13.862;2022-09-24T06:48:49;4.73;;;3.93;;
18046;SDS011;9148;51.454;13.862;2022-09-24T06:51:18;3.90;;;3.23;;
18046;SDS011;9148;51.454;13.862;2022-09-24T06:53:43;7.10;;;5.23;;
18046;SDS011;9148;51.454;13.862;2022-09-24T06:56:09;4.43;;;4.03;;
18046;SDS011;9148;51.454;13.862;2022-09-24T06:58:34;4.70;;;3.90;;
18046;SDS011;9148;51.454;13.862;2022-09-24T07:01:01;5.37;;;4.23;;
18046;SDS011;9148;51.454;13.862;2022-09-24T07:03:28;3.80;;;3.40;;
18046;SDS011;9148;51.454;13.862;2022-09-24T07:05:58;3.83;;;2.87;;
18046;SDS011;9148;51.454;13.862;2022-09-24T07:08:27;3.27;;;2.97;;
18046;SDS011;9148;51.454;13.862;2022-09-24T07:10:53;5.27;;;3.33;;
18046;SDS011;9148;51.454;13.862;2022-09-24T07:13:19;5.17;;;3.13;;
18046;SDS011;9148;51.454;13.862;2022-09-24T07:15:45;3.23;;;2.60;;
18046;SDS011;9148;51.454;13.862;2022-09-24T07:18:13;11.00;;;2.87;;
18046;SDS011;9148;51.454;13.862;2022-09-24T07:20:39;5.13;;;2.23;;
18046;SDS011;9148;51.454;13.862;2022-09-24T07:23:05;5.13;;;3.37;;
18046;SDS011;9148;51.454;13.862;2022-09-24T07:25:34;2.57;;;2.20;;
18046;SDS011;9148;51.454;13.862;2022-09-24T07:28:05;123.97;;;64.33;;
18046;SDS011;9148;51.454;13.862;2022-09-24T07:30:34;22.33;;;15.00;;
18046;SDS011;9148;51.454;13.862;2022-09-24T07:33:01;9.10;;;4.63;;
18046;SDS011;9148;51.454;13.862;2022-09-24T07:35:28;5.47;;;3.73;;
18046;SDS011;9148;51.454;13.862;2022-09-24T07:38:01;59.77;;;34.27;;
18046;SDS011;9148;51.454;13.862;2022-09-24T07:40:30;59.27;;;29.60;;
18046;SDS011;9148;51.454;13.862;2022-09-24T07:42:57;227.90;;;133.17;;
18046;SDS011;9148;51.454;13.862;2022-09-24T07:45:23;17.57;;;11.43;;
18046;SDS011;9148;51.454;13.862;2022-09-24T07:47:56;5.20;;;3.53;;
18046;SDS011;9148;51.454;13.862;2022-09-24T07:50:28;2.70;;;2.03;;
18046;SDS011;9148;51.454;13.862;2022-09-24T07:52:56;3.13;;;2.27;;
18046;SDS011;9148;51.454;13.862;2022-09-24T07:55:22;1.80;;;1.67;;
18046;SDS011;9148;51.454;13.862;2022-09-24T07:57:49;3.80;;;1.70;;
18046;SDS011;9148;51.454;13.862;2022-09-24T08:00:18;2.10;;;1.47;;
18046;SDS011;9148;51.454;13.862;2022-09-24T08:02:45;2.00;;;1.57;;
18046;SDS011;9148;51.454;13.862;2022-09-24T08:05:12;3.23;;;1.83;;
18046;SDS011;9148;51.454;13.862;2022-09-24T08:07:40;3.57;;;1.83;;
18046;SDS011;9148;51.454;13.862;2022-09-24T08:10:07;3.17;;;2.87;;
18046;SDS011;9148;51.454;13.862;2022-09-24T08:12:33;2.47;;;1.90;;
18046;SDS011;9148;51.454;13.862;2022-09-24T08:14:59;2.63;;;2.42;;
18046;SDS011;9148;51.454;13.862;2022-09-24T08:17:25;2.63;;;1.65;;
18046;SDS011;9148;51.454;13.862;2022-09-24T08:19:50;1.70;;;1.20;;
18046;SDS011;9148;51.454;13.862;2022-09-24T08:22:20;3.13;;;1.50;;
18046;SDS011;9148;51.454;13.862;2022-09-24T08:24:47;4.70;;;2.55;;
18046;SDS011;9148;51.454;13.862;2022-09-24T08:27:14;2.33;;;2.13;;
18046;SDS011;9148;51.454;13.862;2022-09-24T08:29:41;4.13;;;2.13;;
18046;SDS011;9148;51.454;13.862;2022-09-24T08:32:07;3.38;;;2.28;;
18046;SDS011;9148;51.454;13.862;2022-09-24T08:34:32;1.60;;;1.50;;
18046;SDS011;9148;51.454;13.862;2022-09-24T08:37:02;1.83;;;1.65;;
18046;SDS011;9148;51.454;13.862;2022-09-24T08:39:30;1.63;;;1.48;;
18046;SDS011;9148;51.454;13.862;2022-09-24T08:41:59;1.98;;;1.70;;
18046;SDS011;9148;51.454;13.862;2022-09-24T08:44:34;1.27;;;1.17;;
18046;SDS011;9148;51.454;13.862;2022-09-24T08:47:32;2.30;;;1.40;;
18046;SDS011;9148;51.454;13.862;2022-09-24T08:50:29;2.47;;;2.28;;
18046;SDS011;9148;51.454;13.862;2022-09-24T08:53:00;3.95;;;1.90;;
18046;SDS011;9148;51.454;13.862;2022-09-24T08:55:46;2.28;;;1.40;;
18046;SDS011;9148;51.454;13.862;2022-09-24T09:03:57;1.60;;;1.48;;
18046;SDS011;9148;51.454;13.862;2022-09-24T09:06:48;6.53;;;2.13;;
18046;SDS011;9148;51.454;13.862;2022-09-24T09:09:47;2.08;;;1.70;;
18046;SDS011;9148;51.454;13.862;2022-09-24T09:12:43;3.20;;;1.80;;
18046;SDS011;9148;51.454;13.862;2022-09-24T09:18:11;2.92;;;2.20;;
18046;SDS011;9148;51.454;13.862;2022-09-24T09:20:45;1.25;;;1.15;;
18046;SDS011;9148;51.454;13.862;2022-09-24T09:23:18;3.95;;;2.47;;
18046;SDS011;9148;51.454;13.862;2022-09-24T09:26:07;1.65;;;1.30;;
18046;SDS011;9148;51.454;13.862;2022-09-24T09:28:35;2.67;;;1.63;;
18046;SDS011;9148;51.454;13.862;2022-09-24T09:31:04;1.40;;;1.30;;
18046;SDS011;9148;51.454;13.862;2022-09-24T09:34:25;1.67;;;1.42;;
18046;SDS011;9148;51.454;13.862;2022-09-24T09:43:03;1.20;;;1.00;;
18046;SDS011;9148;51.454;13.862;2022-09-24T09:48:26;3.10;;;2.03;;
18046;SDS011;9148;51.454;13.862;2022-09-24T09:51:04;1.63;;;0.88;;
18046;SDS011;9148;51.454;13.862;2022-09-24T09:53:31;4.20;;;1.90;;
18046;SDS011;9148;51.454;13.862;2022-09-24T09:55:58;10.38;;;5.38;;
18046;SDS011;9148;51.454;13.862;2022-09-24T09:58:31;1.95;;;1.75;;
18046;SDS011;9148;51.454;13.862;2022-09-24T10:01:03;10.82;;;7.05;;
18046;SDS011;9148;51.454;13.862;2022-09-24T10:06:10;21.27;;;15.23;;
18046;SDS011;9148;51.454;13.862;2022-09-24T10:08:38;10.68;;;6.38;;
18046;SDS011;9148;51.454;13.862;2022-09-24T10:11:05;4.00;;;2.60;;
18046;SDS011;9148;51.454;13.862;2022-09-24T10:13:39;2.67;;;2.17;;
18046;SDS011;9148;51.454;13.862;2022-09-24T10:16:04;2.05;;;1.30;;
18046;SDS011;9148;51.454;13.862;2022-09-24T10:18:47;1.00;;;0.77;;
18046;SDS011;9148;51.454;13.862;2022-09-24T10:21:22;1.27;;;1.17;;
18046;SDS011;9148;51.454;13.862;2022-09-24T10:24:01;0.80;;;0.80;;
18046;SDS011;9148;51.454;13.862;2022-09-24T10:26:36;2.72;;;1.02;;
18046;SDS011;9148;51.454;13.862;2022-09-24T10:29:04;1.65;;;1.30;;
18046;SDS011;9148;51.454;13.862;2022-09-24T10:31:55;1.27;;;1.17;;
18046;SDS011;9148;51.454;13.862;2022-09-24T10:34:23;1.73;;;1.63;;
18046;SDS011;9148;51.454;13.862;2022-09-24T10:36:53;2.33;;;2.03;;
18046;SDS011;9148;51.454;13.862;2022-09-24T10:39:29;2.90;;;1.73;;
18046;SDS011;9148;51.454;13.862;2022-09-24T10:41:55;1.98;;;1.50;;
18046;SDS011;9148;51.454;13.862;2022-09-24T10:44:22;1.98;;;1.42;;
18046;SDS011;9148;51.454;13.862;2022-09-24T10:52:53;1.02;;;0.93;;
18046;SDS011;9148;51.454;13.862;2022-09-24T10:58:23;1.23;;;0.93;;
18046;SDS011;9148;51.454;13.862;2022-09-24T11:01:22;2.08;;;1.20;;
18046;SDS011;9148;51.454;13.862;2022-09-24T11:07:07;1.52;;;1.08;;
18046;SDS011;9148;51.454;13.862;2022-09-24T11:10:00;1.92;;;1.55;;
18046;SDS011;9148;51.454;13.862;2022-09-24T11:24:05;2.63;;;1.63;;
18046;SDS011;9148;51.454;13.862;2022-09-24T11:35:43;3.88;;;2.25;;
18046;SDS011;9148;51.454;13.862;2022-09-24T11:38:34;9.02;;;6.25;;
18046;SDS011;9148;51.454;13.862;2022-09-24T11:41:13;1.83;;;1.33;;
18046;SDS011;9148;51.454;13.862;2022-09-24T11:47:11;6.10;;;3.80;;
18046;SDS011;9148;51.454;13.862;2022-09-24T11:49:54;1.90;;;1.50;;
18046;SDS011;9148;51.454;13.862;2022-09-24T11:52:41;4.82;;;4.07;;
18046;SDS011;9148;51.454;13.862;2022-09-24T11:58:00;1.75;;;1.48;;
18046;SDS011;9148;51.454;13.862;2022-09-24T12:00:42;1.55;;;1.13;;
18046;SDS011;9148;51.454;13.862;2022-09-24T12:06:17;1.50;;;1.40;;
18046;SDS011;9148;51.454;13.862;2022-09-24T12:14:46;0.75;;;0.75;;
18046;SDS011;9148;51.454;13.862;2022-09-24T12:17:25;1.13;;;0.88;;
18046;SDS011;9148;51.454;13.862;2022-09-24T12:20:17;1.15;;;0.80;;
18046;SDS011;9148;51.454;13.862;2022-09-24T12:22:53;0.93;;;0.88;;
18046;SDS011;9148;51.454;13.862;2022-09-24T12:25:36;1.23;;;0.77;;
18046;SDS011;9148;51.454;13.862;2022-09-24T12:28:09;2.88;;;1.55;;
18046;SDS011;9148;51.454;13.862;2022-09-24T12:30:59;6.40;;;4.95;;
18046;SDS011;9148;51.454;13.862;2022-09-24T12:33:52;26.38;;;15.43;;
18046;SDS011;9148;51.454;13.862;2022-09-24T12:36:56;0.85;;;0.85;;
18046;SDS011;9148;51.454;13.862;2022-09-24T12:39:28;0.70;;;0.70;;
18046;SDS011;9148;51.454;13.862;2022-09-24T12:42:08;4.88;;;1.38;;
18046;SDS011;9148;51.454;13.862;2022-09-24T12:47:14;3.75;;;1.60;;
18046;SDS011;9148;51.454;13.862;2022-09-24T12:49:58;2.13;;;1.48;;
18046;SDS011;9148;51.454;13.862;2022-09-24T12:52:33;1.55;;;0.88;;
18046;SDS011;9148;51.454;13.862;2022-09-24T12:55:24;1.88;;;1.15;;
18046;SDS011;9148;51.454;13.862;2022-09-24T13:06:00;1.65;;;1.55;;
18046;SDS011;9148;51.454;13.862;2022-09-24T13:08:38;5.53;;;3.92;;
18046;SDS011;9148;51.454;13.862;2022-09-24T13:11:23;2.10;;;1.52;;
18046;SDS011;9148;51.454;13.862;2022-09-24T13:16:39;5.53;;;4.03;;
18046;SDS011;9148;51.454;13.862;2022-09-24T13:19:29;15.40;;;7.25;;
18046;SDS011;9148;51.454;13.862;2022-09-24T13:22:04;7.13;;;3.58;;
18046;SDS011;9148;51.454;13.862;2022-09-24T13:24:49;25.90;;;15.23;;
18046;SDS011;9148;51.454;13.862;2022-09-24T13:27:19;28.73;;;19.65;;
18046;SDS011;9148;51.454;13.862;2022-09-24T13:30:11;4.32;;;2.97;;
18046;SDS011;9148;51.454;13.862;2022-09-24T13:33:03;3.50;;;2.08;;
18046;SDS011;9148;51.454;13.862;2022-09-24T13:35:44;1.80;;;1.70;;
18046;SDS011;9148;51.454;13.862;2022-09-24T13:38:27;1.20;;;1.10;;
18046;SDS011;9148;51.454;13.862;2022-09-24T13:40:59;1.85;;;1.63;;
18046;SDS011;9148;51.454;13.862;2022-09-24T13:43:51;1.30;;;1.20;;
18046;SDS011;9148;51.454;13.862;2022-09-24T13:46:22;3.17;;;1.17;;
18046;SDS011;9148;51.454;13.862;2022-09-24T13:48:51;3.45;;;2.70;;
18046;SDS011;9148;51.454;13.862;2022-09-24T13:51:28;53.80;;;25.55;;
18046;SDS011;9148;51.454;13.862;2022-09-24T13:54:01;18.33;;;11.60;;
18046;SDS011;9148;51.454;13.862;2022-09-24T13:56:32;25.98;;;16.63;;
18046;SDS011;9148;51.454;13.862;2022-09-24T13:59:02;16.70;;;10.10;;
18046;SDS011;9148;51.454;13.862;2022-09-24T14:01:33;67.57;;;30.73;;
18046;SDS011;9148;51.454;13.862;2022-09-24T14:04:17;64.43;;;33.60;;
18046;SDS011;9148;51.454;13.862;2022-09-24T14:06:55;21.98;;;13.07;;
18046;SDS011;9148;51.454;13.862;2022-09-24T14:09:32;170.38;;;90.18;;
18046;SDS011;9148;51.454;13.862;2022-09-24T14:12:21;8.82;;;5.45;;
18046;SDS011;9148;51.454;13.862;2022-09-24T14:14:50;28.75;;;19.08;;
18046;SDS011;9148;51.454;13.862;2022-09-24T14:17:18;46.03;;;22.98;;
18046;SDS011;9148;51.454;13.862;2022-09-24T14:19:44;83.75;;;49.40;;
18046;SDS011;9148;51.454;13.862;2022-09-24T14:22:16;15.23;;;10.88;;
18046;SDS011;9148;51.454;13.862;2022-09-24T14:25:18;20.40;;;11.65;;
18046;SDS011;9148;51.454;13.862;2022-09-24T14:27:56;7.00;;;3.40;;
18046;SDS011;9148;51.454;13.862;2022-09-24T14:30:24;4.75;;;3.30;;
18046;SDS011;9148;51.454;13.862;2022-09-24T14:32:56;5.40;;;4.18;;
18046;SDS011;9148;51.454;13.862;2022-09-24T14:35:28;2.58;;;2.38;;
18046;SDS011;9148;51.454;13.862;2022-09-24T14:37:58;3.90;;;2.42;;
18046;SDS011;9148;51.454;13.862;2022-09-24T14:40:28;4.05;;;2.05;;
18046;SDS011;9148;51.454;13.862;2022-09-24T14:42:58;1.52;;;1.40;;
18046;SDS011;9148;51.454;13.862;2022-09-24T14:45:28;2.85;;;1.20;;
18046;SDS011;9148;51.454;13.862;2022-09-24T14:48:02;2.42;;;1.70;;
18046;SDS011;9148;51.454;13.862;2022-09-24T14:50:42;5.20;;;3.95;;
18046;SDS011;9148;51.454;13.862;2022-09-24T14:55:51;1.00;;;0.90;;
18046;SDS011;9148;51.454;13.862;2022-09-24T14:58:21;5.30;;;3.70;;
18046;SDS011;9148;51.454;13.862;2022-09-24T15:01:04;6.38;;;3.42;;
18046;SDS011;9148;51.454;13.862;2022-09-24T15:03:38;6.55;;;3.95;;
18046;SDS011;9148;51.454;13.862;2022-09-24T15:06:22;7.45;;;5.70;;
18046;SDS011;9148;51.454;13.862;2022-09-24T15:08:57;3.80;;;2.88;;
18046;SDS011;9148;51.454;13.862;2022-09-24T15:11:44;28.05;;;15.88;;
18046;SDS011;9148;51.454;13.862;2022-09-24T15:14:11;33.60;;;18.17;;
18046;SDS011;9148;51.454;13.862;2022-09-24T15:16:48;10.40;;;8.70;;
18046;SDS011;9148;51.454;13.862;2022-09-24T15:21:55;5.63;;;5.10;;
18046;SDS011;9148;51.454;13.862;2022-09-24T15:24:22;4.40;;;4.00;;
18046;SDS011;9148;51.454;13.862;2022-09-24T15:27:02;2.50;;;2.30;;
18046;SDS011;9148;51.454;13.862;2022-09-24T15:30:06;1.40;;;1.30;;
18046;SDS011;9148;51.454;13.862;2022-09-24T15:32:37;2.53;;;1.15;;
18046;SDS011;9148;51.454;13.862;2022-09-24T15:35:03;5.03;;;4.55;;
18046;SDS011;9148;51.454;13.862;2022-09-24T15:37:33;1.33;;;1.23;;
18046;SDS011;9148;51.454;13.862;2022-09-24T15:40:07;1.38;;;1.23;;
18046;SDS011;9148;51.454;13.862;2022-09-24T15:42:49;2.97;;;2.00;;
18046;SDS011;9148;51.454;13.862;2022-09-24T15:45:17;2.42;;;2.13;;
18046;SDS011;9148;51.454;13.862;2022-09-24T15:47:45;0.90;;;0.90;;
18046;SDS011;9148;51.454;13.862;2022-09-24T15:50:15;1.55;;;1.35;;
18046;SDS011;9148;51.454;13.862;2022-09-24T15:52:49;1.42;;;1.10;;
18046;SDS011;9148;51.454;13.862;2022-09-24T15:55:18;2.78;;;2.40;;
18046;SDS011;9148;51.454;13.862;2022-09-24T15:57:46;8.15;;;6.70;;
18046;SDS011;9148;51.454;13.862;2022-09-24T16:00:13;5.80;;;2.67;;
18046;SDS011;9148;51.454;13.862;2022-09-24T16:02:45;243.95;;;116.40;;
18046;SDS011;9148;51.454;13.862;2022-09-24T16:05:14;851.03;;;489.05;;
18046;SDS011;9148;51.454;13.862;2022-09-24T16:07:41;990.00;;;548.15;;
18046;SDS011;9148;51.454;13.862;2022-09-24T16:10:07;229.63;;;98.47;;
18046;SDS011;9148;51.454;13.862;2022-09-24T16:12:34;361.23;;;177.55;;
18046;SDS011;9148;51.454;13.862;2022-09-24T16:15:00;168.70;;;87.95;;
18046;SDS011;9148;51.454;13.862;2022-09-24T16:17:26;342.17;;;221.63;;
18046;SDS011;9148;51.454;13.862;2022-09-24T16:19:52;161.55;;;89.90;;
18046;SDS011;9148;51.454;13.862;2022-09-24T16:22:18;47.42;;;30.92;;
18046;SDS011;9148;51.454;13.862;2022-09-24T16:24:44;18.40;;;10.57;;
18046;SDS011;9148;51.454;13.862;2022-09-24T16:27:09;60.95;;;48.80;;
18046;SDS011;9148;51.454;13.862;2022-09-24T16:29:35;19.55;;;15.18;;
18046;SDS011;9148;51.454;13.862;2022-09-24T16:32:01;14.45;;;10.57;;
18046;SDS011;9148;51.454;13.862;2022-09-24T16:34:27;16.08;;;8.90;;
18046;SDS011;9148;51.454;13.862;2022-09-24T16:36:53;18.45;;;12.85;;
18046;SDS011;9148;51.454;13.862;2022-09-24T16:39:19;16.77;;;9.80;;
18046;SDS011;9148;51.454;13.862;2022-09-24T16:41:48;15.25;;;9.43;;
18046;SDS011;9148;51.454;13.862;2022-09-24T16:44:15;10.40;;;8.10;;
18046;SDS011;9148;51.454;13.862;2022-09-24T16:46:44;19.38;;;13.38;;
18046;SDS011;9148;51.454;13.862;2022-09-24T16:49:10;25.52;;;14.63;;
18046;SDS011;9148;51.454;13.862;2022-09-24T16:51:36;37.05;;;19.75;;